createdAt,value
2022-09-02T00:02:10.237Z,15.30
2022-09-02T00:04:38.927Z,15.20
2022-09-02T00:07:06.938Z,15.20
2022-09-02T00:09:35.064Z,15.20
2022-09-02T00:12:03.154Z,15.20
2022-09-02T00:14:38.524Z,15.10
2022-09-02T00:17:09.155Z,15.10
2022-09-02T00:19:38.484Z,15.10
2022-09-02T00:22:06.547Z,15.10
2022-09-02T00:24:34.688Z,15.10
2022-09-02T00:27:04.034Z,15.10
2022-09-02T00:29:32.017Z,15.10
2022-09-02T00:32:00.335Z,15.10
2022-09-02T00:34:28.398Z,15.10
2022-09-02T00:36:57.844Z,15.00
2022-09-02T00:39:26.290Z,15.00
2022-09-02T00:41:54.217Z,14.90
2022-09-02T00:44:22.792Z,14.90
2022-09-02T00:46:51.100Z,14.90
2022-09-02T00:49:24.280Z,14.80
2022-09-02T00:51:55.758Z,14.80
2022-09-02T00:54:27.758Z,14.80
2022-09-02T00:56:56.333Z,14.80
2022-09-02T00:59:30.455Z,14.80
2022-09-02T01:01:58.567Z,14.80
2022-09-02T01:04:27.539Z,14.70
2022-09-02T01:06:56.012Z,14.70
2022-09-02T01:09:25.286Z,14.60
2022-09-02T01:11:55.418Z,14.60
2022-09-02T01:14:24.097Z,14.60
2022-09-02T01:16:59.976Z,14.70
2022-09-02T01:19:30.920Z,14.80
2022-09-02T01:22:00.596Z,14.80
2022-09-02T01:24:32.115Z,14.80
2022-09-02T01:27:00.893Z,14.80
2022-09-02T01:29:29.947Z,14.80
2022-09-02T01:31:58.222Z,14.80
2022-09-02T01:34:26.155Z,14.70
2022-09-02T01:36:54.104Z,14.60
2022-09-02T01:39:23.421Z,14.60
2022-09-02T01:41:51.704Z,14.60
2022-09-02T01:44:19.719Z,14.60
2022-09-02T01:46:47.811Z,14.60
2022-09-02T01:49:15.846Z,14.60
2022-09-02T01:51:43.788Z,14.50
2022-09-02T01:54:12.065Z,14.40
2022-09-02T01:56:41.445Z,14.30
2022-09-02T01:59:11.503Z,14.20
2022-09-02T02:01:39.503Z,14.20
2022-09-02T02:04:12.715Z,14.20
2022-09-02T02:06:43.101Z,14.10
2022-09-02T02:09:11.495Z,14.20
2022-09-02T02:11:41.695Z,14.20
2022-09-02T02:14:09.707Z,14.20
2022-09-02T02:16:37.857Z,14.30
2022-09-02T02:19:06.200Z,14.30
2022-09-02T02:21:34.508Z,14.30
2022-09-02T02:24:04.177Z,14.30
2022-09-02T02:26:32.145Z,14.30
2022-09-02T02:29:01.841Z,14.30
2022-09-02T02:31:29.949Z,14.30
2022-09-02T02:33:57.993Z,14.30
2022-09-02T02:36:25.988Z,14.30
2022-09-02T02:38:54.004Z,14.30
2022-09-02T02:41:21.942Z,14.30
2022-09-02T02:43:50.185Z,14.30
2022-09-02T02:46:19.620Z,14.30
2022-09-02T02:48:47.703Z,14.20
2022-09-02T02:51:15.871Z,14.20
2022-09-02T02:53:43.832Z,14.20
2022-09-02T02:56:11.764Z,14.10
2022-09-02T02:58:39.688Z,14.10
2022-09-02T03:01:08.090Z,14.10
2022-09-02T03:03:37.844Z,14.00
2022-09-02T03:06:05.894Z,14.00
2022-09-02T03:08:36.750Z,14.00
2022-09-02T03:11:05.707Z,14.00
2022-09-02T03:13:34.444Z,14.00
2022-09-02T03:16:04.491Z,14.00
2022-09-02T03:18:32.509Z,13.90
2022-09-02T03:21:02.124Z,13.90
2022-09-02T03:23:30.066Z,13.90
2022-09-02T03:25:58.028Z,13.80
2022-09-02T03:28:25.992Z,13.80
2022-09-02T03:30:53.944Z,13.80
2022-09-02T03:33:23.679Z,13.80
2022-09-02T03:35:51.840Z,13.70
2022-09-02T03:38:21.444Z,13.70
2022-09-02T03:40:49.447Z,13.70
2022-09-02T03:43:17.516Z,13.70
2022-09-02T03:45:45.553Z,13.70
2022-09-02T03:48:14.631Z,13.60
2022-09-02T03:50:46.474Z,13.60
2022-09-02T03:53:19.669Z,13.60
2022-09-02T03:55:50.831Z,13.60
2022-09-02T03:58:21.997Z,13.60
2022-09-02T04:00:52.866Z,13.60
2022-09-02T04:03:21.466Z,13.50
2022-09-02T04:05:50.859Z,13.50
2022-09-02T04:08:19.387Z,13.50
2022-09-02T04:10:47.340Z,13.40
2022-09-02T04:13:16.846Z,13.40
2022-09-02T04:15:48.256Z,13.40
2022-09-02T04:18:17.596Z,13.40
2022-09-02T04:20:46.110Z,13.40
2022-09-02T04:23:14.098Z,13.40
2022-09-02T04:25:42.913Z,13.40
2022-09-02T04:28:13.241Z,13.30
2022-09-02T04:30:43.484Z,13.30
2022-09-02T04:33:11.923Z,13.30
2022-09-02T04:35:41.785Z,13.30
2022-09-02T04:38:09.717Z,13.30
2022-09-02T04:40:40.671Z,13.20
2022-09-02T04:43:08.669Z,13.20
2022-09-02T04:45:36.765Z,13.10
2022-09-02T04:48:06.381Z,13.10
2022-09-02T04:50:34.368Z,13.00
2022-09-02T04:53:02.525Z,13.00
2022-09-02T04:55:30.764Z,12.90
2022-09-02T04:57:58.948Z,12.80
2022-09-02T05:00:27.416Z,12.70
2022-09-02T05:02:56.271Z,12.70
2022-09-02T05:05:25.608Z,12.60
2022-09-02T05:07:56.264Z,12.60
2022-09-02T05:10:24.208Z,12.60
2022-09-02T05:12:52.428Z,12.70
2022-09-02T05:15:20.553Z,12.70
2022-09-02T05:17:48.577Z,12.80
2022-09-02T05:20:16.605Z,12.80
2022-09-02T05:22:46.237Z,12.90
2022-09-02T05:25:14.194Z,13.00
2022-09-02T05:27:42.322Z,13.00
2022-09-02T05:30:10.845Z,13.10
2022-09-02T05:32:38.751Z,13.20
2022-09-02T05:35:07.521Z,13.20
2022-09-02T05:37:36.364Z,13.30
2022-09-02T05:40:06.848Z,13.30
2022-09-02T05:42:37.088Z,13.40
2022-09-02T05:45:05.732Z,13.50
2022-09-02T05:47:35.154Z,13.60
2022-09-02T05:50:03.267Z,13.60
2022-09-02T05:52:31.309Z,13.70
2022-09-02T05:55:00.408Z,13.80
2022-09-02T05:57:29.692Z,13.80
2022-09-02T05:59:57.595Z,13.90
2022-09-02T06:02:27.236Z,14.00
2022-09-02T06:04:55.898Z,14.10
2022-09-02T06:07:26.265Z,14.10
2022-09-02T06:09:55.224Z,14.20
2022-09-02T06:12:23.566Z,14.30
2022-09-02T06:14:52.901Z,14.30
2022-09-02T06:17:20.783Z,14.40
2022-09-02T06:19:49.005Z,14.50
2022-09-02T06:22:20.776Z,14.60
2022-09-02T06:24:48.745Z,14.70
2022-09-02T06:27:16.669Z,14.70
2022-09-02T06:29:46.054Z,14.80
2022-09-02T06:32:15.448Z,14.90
2022-09-02T06:34:43.334Z,15.00
2022-09-02T06:37:11.195Z,15.10
2022-09-02T06:39:43.851Z,15.20
2022-09-02T06:42:11.852Z,15.30
2022-09-02T06:44:40.035Z,15.40
2022-09-02T06:47:08.090Z,15.50
2022-09-02T06:49:37.388Z,15.60
2022-09-02T06:52:05.633Z,15.70
2022-09-02T06:54:33.633Z,15.70
2022-09-02T06:57:01.561Z,15.80
2022-09-02T06:59:29.795Z,15.90
2022-09-02T07:01:58.023Z,16.00
2022-09-02T07:04:43.710Z,16.10
2022-09-02T07:07:13.249Z,16.20
2022-09-02T07:09:41.425Z,16.30
2022-09-02T07:12:09.432Z,16.40
2022-09-02T07:14:38.813Z,16.50
2022-09-02T07:17:08.196Z,16.50
2022-09-02T07:19:36.676Z,16.70
2022-09-02T07:22:05.164Z,16.80
2022-09-02T07:24:34.476Z,16.80
2022-09-02T07:27:02.513Z,16.90
2022-09-02T07:29:30.565Z,17.10
2022-09-02T07:31:59.334Z,17.20
2022-09-02T07:34:27.474Z,17.30
2022-09-02T07:36:57.847Z,17.50
2022-09-02T07:39:29.755Z,17.60
2022-09-02T07:41:59.456Z,17.80
2022-09-02T07:44:28.723Z,18.00
2022-09-02T07:46:56.673Z,18.20
2022-09-02T07:49:25.152Z,18.40
2022-09-02T07:51:53.640Z,18.80
2022-09-02T07:54:25.444Z,19.20
2022-09-02T07:56:53.792Z,19.70
2022-09-02T07:59:23.097Z,20.40
2022-09-02T08:01:51.841Z,21.00
2022-09-02T08:04:21.194Z,21.60
2022-09-02T08:06:49.286Z,22.20
2022-09-02T08:09:17.201Z,22.60
2022-09-02T08:11:47.928Z,23.00
2022-09-02T08:14:19.460Z,23.50
2022-09-02T08:16:49.433Z,24.00
2022-09-02T08:19:17.826Z,24.40
2022-09-02T08:21:45.975Z,24.70
2022-09-02T08:24:13.959Z,25.00
2022-09-02T08:26:41.934Z,25.00
2022-09-02T08:29:10.545Z,25.00
2022-09-02T08:31:39.358Z,25.00
2022-09-02T08:34:08.729Z,25.10
2022-09-02T08:36:36.654Z,25.10
2022-09-02T08:39:06.048Z,25.30
2022-09-02T08:41:43.002Z,25.30
2022-09-02T08:44:14.269Z,25.70
2022-09-02T08:46:42.533Z,26.00
2022-09-02T08:49:19.859Z,26.10
2022-09-02T08:51:53.572Z,26.50
2022-09-02T08:54:28.737Z,26.50
2022-09-02T08:56:58.530Z,26.20
2022-09-02T08:59:29.099Z,26.40
2022-09-02T09:02:06.892Z,26.20
2022-09-02T09:04:54.696Z,26.10
2022-09-02T09:07:33.858Z,25.90
2022-09-02T09:10:10.207Z,25.80
2022-09-02T09:12:59.845Z,25.60
2022-09-02T09:15:41.593Z,25.80
2022-09-02T09:18:13.944Z,25.90
2022-09-02T09:20:45.002Z,26.00
2022-09-02T09:23:24.133Z,26.60
2022-09-02T09:25:56.508Z,27.20
2022-09-02T09:28:24.666Z,27.40
2022-09-02T09:30:53.316Z,27.80
2022-09-02T09:33:23.823Z,27.50
2022-09-02T09:35:56.409Z,27.50
2022-09-02T09:38:31.409Z,27.50
2022-09-02T09:41:21.466Z,27.20
2022-09-02T09:43:49.520Z,27.40
2022-09-02T09:46:29.164Z,27.60
2022-09-02T09:48:57.454Z,27.40
2022-09-02T09:51:27.133Z,27.00
2022-09-02T09:54:16.044Z,26.50
2022-09-02T09:56:43.983Z,26.80
2022-09-02T09:59:37.112Z,27.00
2022-09-02T10:02:05.384Z,27.10
2022-09-02T10:04:50.021Z,27.10
2022-09-02T10:07:37.403Z,26.90
2022-09-02T10:10:22.058Z,26.20
2022-09-02T10:12:52.721Z,25.50
2022-09-02T10:15:27.920Z,25.40
2022-09-02T10:18:05.396Z,25.80
2022-09-02T10:21:11.574Z,25.90
2022-09-02T10:23:48.394Z,25.60
2022-09-02T10:29:36.139Z,25.10
2022-09-02T10:32:21.721Z,25.40
2022-09-02T10:35:02.116Z,25.40
2022-09-02T10:37:39.426Z,25.10
2022-09-02T10:40:16.086Z,24.90
2022-09-02T10:42:54.968Z,25.00
2022-09-02T10:45:28.908Z,25.20
2022-09-02T10:48:17.412Z,25.10
2022-09-02T10:50:50.322Z,24.90
2022-09-02T10:53:32.951Z,24.80
2022-09-02T10:56:05.615Z,24.60
2022-09-02T10:58:45.148Z,24.70
2022-09-02T11:01:20.173Z,24.70
2022-09-02T11:04:04.469Z,24.70
2022-09-02T11:06:58.823Z,24.70
2022-09-02T11:09:34.118Z,24.90
2022-09-02T11:12:11.065Z,25.00
2022-09-02T11:14:48.598Z,25.20
2022-09-02T11:17:23.233Z,25.30
2022-09-02T11:19:57.145Z,25.40
2022-09-02T11:22:29.239Z,25.40
2022-09-02T11:25:04.111Z,25.50
2022-09-02T11:27:42.916Z,25.80
2022-09-02T11:30:16.460Z,26.10
2022-09-02T11:32:47.588Z,26.00
2022-09-02T11:35:20.977Z,25.90
2022-09-02T11:37:53.600Z,25.90
2022-09-02T11:40:34.801Z,26.10
2022-09-02T11:43:23.996Z,26.30
2022-09-02T11:46:31.254Z,26.40
2022-09-02T11:49:32.229Z,26.20
2022-09-02T11:52:06.538Z,26.10
2022-09-02T11:54:39.578Z,26.20
2022-09-02T11:57:11.958Z,26.60
2022-09-02T12:00:13.248Z,26.80
2022-09-02T12:02:45.790Z,27.00
2022-09-02T12:05:49.819Z,26.90
2022-09-02T12:08:55.939Z,26.80
2022-09-02T12:11:47.947Z,26.80
2022-09-02T12:15:06.235Z,26.70
2022-09-02T12:17:41.419Z,26.50
2022-09-02T12:20:11.643Z,26.40
2022-09-02T12:22:41.864Z,26.20
2022-09-02T12:25:40.378Z,26.10
2022-09-02T12:28:25.869Z,26.10
2022-09-02T12:31:15.765Z,26.40
2022-09-02T12:33:49.164Z,26.80
2022-09-02T12:36:49.159Z,26.80
2022-09-02T12:39:56.005Z,26.60
2022-09-02T12:42:29.848Z,26.50
2022-09-02T12:45:07.668Z,26.40
2022-09-02T12:47:50.405Z,26.40
2022-09-02T12:50:26.057Z,26.50
2022-09-02T12:53:09.353Z,26.60
2022-09-02T12:55:39.061Z,26.30
2022-09-02T12:58:09.811Z,26.30
2022-09-02T13:00:47.930Z,26.50
2022-09-02T13:03:31.080Z,26.50
2022-09-02T13:06:07.320Z,26.60
2022-09-02T13:12:20.876Z,27.10
2022-09-02T13:15:12.318Z,27.20
2022-09-02T13:18:07.583Z,27.30
2022-09-02T13:21:05.563Z,27.60
2022-09-02T13:24:18.318Z,27.50
2022-09-02T13:27:12.002Z,27.30
2022-09-02T13:30:13.216Z,27.20
2022-09-02T13:32:41.342Z,27.00
2022-09-02T13:35:24.062Z,27.00
2022-09-02T13:37:59.871Z,27.00
2022-09-02T13:40:33.538Z,27.40
2022-09-02T13:43:03.663Z,27.20
2022-09-02T13:45:35.071Z,27.00
2022-09-02T13:48:08.358Z,26.80
2022-09-02T13:50:37.885Z,26.80
2022-09-02T13:55:58.221Z,26.90
2022-09-02T13:58:37.135Z,26.80
2022-09-02T14:01:29.340Z,26.60
2022-09-02T14:03:59.889Z,26.50
2022-09-02T14:06:30.956Z,26.40
2022-09-02T14:09:03.344Z,26.60
2022-09-02T14:11:39.244Z,26.60
2022-09-02T14:14:07.576Z,26.40
2022-09-02T14:16:37.639Z,26.40
2022-09-02T14:19:11.621Z,26.40
2022-09-02T14:21:46.799Z,26.40
2022-09-02T14:24:20.911Z,26.30
2022-09-02T14:26:50.951Z,26.20
2022-09-02T14:29:20.950Z,26.20
2022-09-02T14:32:07.530Z,26.10
2022-09-02T14:34:37.001Z,25.90
2022-09-02T14:37:19.035Z,25.90
2022-09-02T14:40:12.190Z,26.00
2022-09-02T14:42:55.244Z,26.00
2022-09-02T14:45:28.286Z,25.80
2022-09-02T14:47:57.674Z,25.70
2022-09-02T14:50:29.331Z,25.70
2022-09-02T14:53:03.657Z,25.70
2022-09-02T14:55:46.817Z,25.70
2022-09-02T14:58:16.017Z,25.70
2022-09-02T15:00:48.567Z,25.70
2022-09-02T15:03:17.720Z,25.70
2022-09-02T15:05:46.401Z,25.80
2022-09-02T15:08:15.229Z,25.90
2022-09-02T15:10:45.672Z,25.90
2022-09-02T15:13:15.864Z,25.80
2022-09-02T15:15:43.864Z,25.80
2022-09-02T15:18:14.060Z,25.70
2022-09-02T15:20:42.161Z,25.60
2022-09-02T15:23:11.041Z,25.60
2022-09-02T15:25:39.242Z,25.60
2022-09-02T15:28:08.628Z,25.50
2022-09-02T15:30:36.852Z,25.60
2022-09-02T15:33:05.352Z,25.60
2022-09-02T15:35:35.073Z,25.60
2022-09-02T15:38:04.005Z,25.50
2022-09-02T15:40:32.879Z,25.50
2022-09-02T15:43:01.298Z,25.40
2022-09-02T15:45:30.752Z,25.40
2022-09-02T15:47:59.720Z,25.40
2022-09-02T15:50:29.631Z,25.30
2022-09-02T15:52:57.742Z,25.40
2022-09-02T15:55:29.202Z,25.40
2022-09-02T15:57:57.650Z,25.30
2022-09-02T16:00:27.790Z,25.30
2022-09-02T16:02:58.858Z,25.30
2022-09-02T16:05:27.006Z,25.30
2022-09-02T16:07:55.872Z,25.30
2022-09-02T16:10:24.005Z,25.20
2022-09-02T16:12:51.952Z,25.10
2022-09-02T16:15:20.857Z,25.10
2022-09-02T16:17:50.218Z,25.10
2022-09-02T16:20:21.376Z,25.10
2022-09-02T16:22:49.563Z,25.10
2022-09-02T16:25:17.780Z,25.10
2022-09-02T16:27:55.805Z,25.10
2022-09-02T16:30:25.665Z,25.00
2022-09-02T16:32:54.581Z,25.00
2022-09-02T16:35:23.858Z,25.00
2022-09-02T16:37:53.022Z,25.00
2022-09-02T16:40:22.063Z,25.00
2022-09-02T16:42:50.170Z,24.90
2022-09-02T16:45:18.039Z,24.90
2022-09-02T16:47:45.944Z,24.90
2022-09-02T16:50:13.838Z,24.80
2022-09-02T16:52:43.608Z,24.70
2022-09-02T16:55:17.652Z,24.60
2022-09-02T16:57:45.542Z,24.50
2022-09-02T17:00:14.789Z,24.40
2022-09-02T17:02:42.795Z,24.40
2022-09-02T17:05:11.234Z,24.30
2022-09-02T17:07:39.104Z,24.20
2022-09-02T17:10:09.153Z,24.10
2022-09-02T17:12:42.178Z,24.10
2022-09-02T17:15:11.330Z,24.10
2022-09-02T17:17:39.998Z,24.00
2022-09-02T17:20:08.784Z,23.90
2022-09-02T17:22:36.676Z,23.80
2022-09-02T17:25:04.803Z,23.70
2022-09-02T17:27:36.324Z,23.60
2022-09-02T17:30:04.837Z,23.60
2022-09-02T17:32:33.311Z,23.50
2022-09-02T17:35:03.087Z,23.50
2022-09-02T17:37:31.457Z,23.40
2022-09-02T17:39:59.680Z,23.20
2022-09-02T17:42:26.787Z,23.00
2022-09-02T17:44:56.690Z,22.90
2022-09-02T17:47:25.700Z,22.70
2022-09-02T17:49:53.698Z,22.50
2022-09-02T17:52:23.779Z,22.60
2022-09-02T17:54:53.365Z,22.60
2022-09-02T17:57:28.192Z,22.70
2022-09-02T18:00:05.906Z,22.80
2022-09-02T18:03:00.413Z,22.80
2022-09-02T18:05:32.555Z,22.90
2022-09-02T18:08:08.596Z,22.80
2022-09-02T18:10:38.089Z,22.90
2022-09-02T18:13:08.949Z,22.80
2022-09-02T18:15:47.732Z,22.80
2022-09-02T18:18:17.073Z,22.80
2022-09-02T18:20:49.452Z,22.80
2022-09-02T18:23:28.695Z,22.80
2022-09-02T18:26:07.003Z,22.80
2022-09-02T18:28:43.353Z,22.70
2022-09-02T18:31:27.089Z,22.70
2022-09-02T18:34:14.816Z,22.60
2022-09-02T18:36:49.844Z,22.60
2022-09-02T18:39:35.518Z,22.60
2022-09-02T18:42:21.943Z,22.50
2022-09-02T18:45:00.085Z,22.50
2022-09-02T18:47:32.942Z,22.40
2022-09-02T18:50:05.084Z,22.40
2022-09-02T18:52:34.705Z,22.40
2022-09-02T18:55:09.835Z,22.30
2022-09-02T18:57:49.624Z,22.30
2022-09-02T19:00:23.154Z,22.10
2022-09-02T19:02:59.940Z,21.80
2022-09-02T19:05:30.046Z,21.60
2022-09-02T19:08:20.695Z,21.50
2022-09-02T19:10:48.922Z,21.30
2022-09-02T19:13:16.949Z,21.20
2022-09-02T19:15:45.059Z,21.00
2022-09-02T19:18:15.045Z,20.90
2022-09-02T19:20:43.179Z,20.80
2022-09-02T19:23:13.238Z,20.70
2022-09-02T19:25:45.208Z,20.60
2022-09-02T19:28:16.177Z,20.60
2022-09-02T19:30:44.193Z,20.50
2022-09-02T19:33:15.209Z,20.40
2022-09-02T19:35:48.039Z,20.30
2022-09-02T19:38:17.633Z,20.20
2022-09-02T19:40:49.357Z,20.00
2022-09-02T19:43:17.624Z,20.00
2022-09-02T19:45:51.252Z,19.90
2022-09-02T19:48:21.038Z,19.90
2022-09-02T19:50:49.552Z,19.70
2022-09-02T19:53:20.581Z,19.60
2022-09-02T19:55:48.636Z,19.60
2022-09-02T19:58:16.629Z,19.60
2022-09-02T20:00:44.849Z,19.60
2022-09-02T20:03:13.114Z,19.60
2022-09-02T20:05:42.515Z,19.60
2022-09-02T20:08:10.643Z,19.60
2022-09-02T20:10:40.079Z,19.60
2022-09-02T20:13:12.195Z,19.60
2022-09-02T20:15:40.163Z,19.50
2022-09-02T20:18:11.199Z,19.50
2022-09-02T20:20:44.262Z,19.60
2022-09-02T20:23:17.056Z,19.60
2022-09-02T20:25:57.501Z,19.50
2022-09-02T20:28:32.901Z,19.50
2022-09-02T20:31:08.444Z,19.50
2022-09-02T20:33:45.377Z,19.40
2022-09-02T20:36:22.860Z,19.40
2022-09-02T20:39:05.542Z,19.30
2022-09-02T20:41:44.839Z,19.30
2022-09-02T20:44:34.508Z,19.20
2022-09-02T20:47:20.010Z,19.20
2022-09-02T20:50:16.609Z,19.10
2022-09-02T20:52:58.744Z,19.10
2022-09-02T20:55:32.804Z,19.00
2022-09-02T20:58:19.100Z,19.10
2022-09-02T21:01:01.180Z,19.00
2022-09-02T21:03:37.280Z,18.90
2022-09-02T21:06:05.333Z,18.90
2022-09-02T21:08:40.001Z,18.90
2022-09-02T21:11:13.856Z,18.80
2022-09-02T21:13:48.616Z,18.80
2022-09-02T21:16:20.567Z,18.70
2022-09-02T21:18:55.748Z,18.70
2022-09-02T21:21:31.201Z,18.70
2022-09-02T21:24:06.462Z,18.70
2022-09-02T21:26:42.857Z,18.60
2022-09-02T21:29:16.329Z,18.60
2022-09-02T21:31:48.705Z,18.50
2022-09-02T21:34:24.351Z,18.50
2022-09-02T21:36:55.527Z,18.30
2022-09-02T21:39:28.112Z,18.10
2022-09-02T21:42:04.379Z,18.00
2022-09-02T21:44:42.522Z,18.00
2022-09-02T21:47:20.942Z,17.90
2022-09-02T21:50:07.501Z,17.90
2022-09-02T21:52:50.655Z,17.80
2022-09-02T21:55:42.878Z,17.80
2022-09-02T21:58:36.146Z,17.80
2022-09-02T22:01:08.918Z,17.80
2022-09-02T22:03:42.060Z,17.80
2022-09-02T22:06:16.663Z,17.70
2022-09-02T22:08:50.504Z,17.70
2022-09-02T22:11:27.428Z,17.60
2022-09-02T22:13:59.125Z,17.70
2022-09-02T22:16:35.148Z,17.50
2022-09-02T22:19:06.228Z,17.50
2022-09-02T22:21:48.303Z,17.50
2022-09-02T22:24:17.534Z,17.50
2022-09-02T22:26:52.137Z,17.40
2022-09-02T22:29:36.437Z,17.40
2022-09-02T22:32:09.136Z,17.30
2022-09-02T22:34:43.576Z,17.30
2022-09-02T22:37:18.671Z,17.30
2022-09-02T22:39:51.500Z,17.30
2022-09-02T22:42:28.256Z,17.30
2022-09-02T22:45:21.113Z,17.30
2022-09-02T22:48:14.141Z,17.20
2022-09-02T22:51:06.632Z,17.10
2022-09-02T22:53:34.658Z,17.10
2022-09-02T22:56:04.116Z,17.10
2022-09-02T22:58:47.555Z,17.00
2022-09-02T23:01:26.293Z,17.00
2022-09-02T23:04:11.052Z,17.00
2022-09-02T23:06:38.969Z,17.00
2022-09-02T23:09:09.538Z,17.00
2022-09-02T23:11:44.059Z,17.00
2022-09-02T23:14:26.660Z,17.00
2022-09-02T23:17:23.501Z,17.00
2022-09-02T23:20:06.370Z,17.00
2022-09-02T23:22:56.347Z,17.00
2022-09-02T23:25:42.570Z,17.00
2022-09-02T23:28:16.588Z,17.00
2022-09-02T23:30:53.394Z,17.00
2022-09-02T23:33:34.294Z,17.10
2022-09-02T23:36:13.081Z,17.10
2022-09-02T23:38:56.741Z,17.10
2022-09-02T23:41:24.804Z,17.10
2022-09-02T23:43:53.755Z,17.10
2022-09-02T23:46:34.399Z,17.10
2022-09-02T23:49:14.933Z,17.10
2022-09-02T23:51:55.772Z,17.10
2022-09-02T23:54:42.617Z,17.00
2022-09-02T23:57:40.566Z,17.00
